Time;durP1;ratioP1;P1;durP2;ratioP2;P2;SDS_P1;SDS_P2;PMS_P1;PMS_P2;Temp;Humidity;BMP_temperature;BMP_pressure;BME280_temperature;BME280_humidity;BME280_pressure;Samples;Min_cycle;Max_cycle;Signal;HPM_P1;HPM_P2
2021/07/03 00:01:17;;;;;;;15.93;7.70;;;;;;;13.38;100.00;100694.88;4983725;28;20048;-82
2021/07/03 00:03:46;;;;;;;10.80;6.82;;;;;;;13.35;100.00;100693.22;4983028;28;20029;-82
2021/07/03 00:06:14;;;;;;;14.50;6.88;;;;;;;13.28;100.00;100691.69;4982136;28;20042;-82
2021/07/03 00:08:40;;;;;;;11.75;7.30;;;;;;;13.37;100.00;100695.81;4983156;28;20022;-82
2021/07/03 00:11:07;;;;;;;11.57;6.32;;;;;;;13.27;100.00;100694.31;4982734;28;20060;-82
2021/07/03 00:13:38;;;;;;;13.35;7.47;;;;;;;13.29;100.00;100690.78;4982484;28;20023;-82
2021/07/03 00:16:07;;;;;;;13.10;6.75;;;;;;;13.16;100.00;100688.53;4983254;28;20039;-82
2021/07/03 00:18:41;;;;;;;13.60;7.50;;;;;;;13.16;100.00;100693.75;4982538;28;20022;-82
2021/07/03 00:21:12;;;;;;;16.17;7.45;;;;;;;13.10;100.00;100692.16;5000343;28;20470;-82
2021/07/03 00:23:42;;;;;;;12.63;7.20;;;;;;;13.07;100.00;100689.63;4982684;28;20098;-82
2021/07/03 00:26:13;;;;;;;16.63;7.00;;;;;;;13.07;100.00;100694.84;4982446;28;20121;-82
2021/07/03 00:28:41;;;;;;;12.98;7.38;;;;;;;13.01;100.00;100693.25;5000397;28;20022;-82
2021/07/03 00:31:06;;;;;;;11.85;7.50;;;;;;;13.05;100.00;100686.19;4982013;28;20026;-82
2021/07/03 00:33:35;;;;;;;13.13;7.60;;;;;;;13.08;100.00;100688.72;4982992;28;20022;-82
2021/07/03 00:36:00;;;;;;;15.70;8.88;;;;;;;13.05;100.00;100689.69;4982311;28;20036;-82
2021/07/03 00:38:28;;;;;;;16.92;8.77;;;;;;;12.91;100.00;100689.19;4982312;28;20053;-82
2021/07/03 00:40:59;;;;;;;13.07;8.48;;;;;;;12.90;100.00;100692.69;4981813;28;20049;-82
2021/07/03 00:43:25;;;;;;;16.00;8.00;;;;;;;12.83;100.00;100688.50;4982721;28;20018;-82
2021/07/03 00:45:51;;;;;;;16.08;7.80;;;;;;;12.82;100.00;100687.66;4982393;28;20049;-81
2021/07/03 00:48:19;;;;;;;15.20;8.25;;;;;;;12.76;100.00;100680.00;4982644;28;20033;-82
2021/07/03 00:50:50;;;;;;;13.98;8.15;;;;;;;12.74;100.00;100691.34;4982001;28;20054;-82
2021/07/03 00:53:18;;;;;;;12.75;8.13;;;;;;;12.76;100.00;100689.56;4981842;28;20014;-82
2021/07/03 00:55:46;;;;;;;14.27;8.23;;;;;;;12.81;100.00;100692.91;4982522;28;20026;-82
2021/07/03 00:58:14;;;;;;;14.68;8.07;;;;;;;12.74;100.00;100689.59;4982496;28;20037;-82
2021/07/03 01:00:43;;;;;;;17.52;8.02;;;;;;;12.75;100.00;100698.28;4999782;28;20387;-82
2021/07/03 01:03:11;;;;;;;11.32;7.63;;;;;;;12.70;100.00;100700.13;4981373;28;20030;-82
2021/07/03 01:05:37;;;;;;;13.43;7.90;;;;;;;12.69;100.00;100704.47;4999508;28;20026;-82
2021/07/03 01:08:03;;;;;;;14.38;8.25;;;;;;;12.72;100.00;100695.75;4982523;28;20105;-83
2021/07/03 01:10:30;;;;;;;14.93;8.30;;;;;;;12.69;100.00;100696.69;4982157;28;20057;-82
2021/07/03 01:12:58;;;;;;;16.65;9.23;;;;;;;12.62;100.00;100695.97;4981574;28;20057;-82
2021/07/03 01:15:24;;;;;;;13.50;8.73;;;;;;;12.60;100.00;100695.16;4982054;28;20045;-82
2021/07/03 01:17:53;;;;;;;15.98;8.20;;;;;;;12.64;100.00;100696.78;4981979;28;20042;-82
2021/07/03 01:20:19;;;;;;;12.23;8.45;;;;;;;12.66;100.00;100699.34;4982174;28;20459;-82
2021/07/03 01:22:49;;;;;;;17.52;8.70;;;;;;;12.76;100.00;100700.81;4982054;28;20057;-82
2021/07/03 01:25:18;;;;;;;14.95;8.57;;;;;;;12.85;100.00;100698.00;4980948;28;20475;-82
2021/07/03 01:27:59;;;;;;;15.32;8.95;;;;;;;12.85;100.00;100695.38;4981789;28;20022;-82
2021/07/03 01:30:30;;;;;;;17.80;8.55;;;;;;;12.87;100.00;100703.19;4982392;28;20076;-82
2021/07/03 01:32:58;;;;;;;13.38;8.68;;;;;;;12.83;100.00;100704.13;4981762;28;20030;-82
2021/07/03 01:35:38;;;;;;;14.27;8.60;;;;;;;12.86;100.00;100697.09;4982470;28;20069;-82
2021/07/03 01:38:03;;;;;;;17.25;8.77;;;;;;;12.86;100.00;100697.09;4981813;28;20049;-82
2021/07/03 01:41:15;;;;;;;16.88;9.15;;;;;;;12.74;100.00;100701.75;5556855;23;20031;-81
2021/07/03 01:43:41;;;;;;;14.35;9.57;;;;;;;12.70;100.00;100700.13;4981397;28;20043;-80
2021/07/03 01:46:06;;;;;;;15.57;9.05;;;;;;;12.58;100.00;100691.72;4999006;28;20568;-80
2021/07/03 01:48:32;;;;;;;18.50;10.30;;;;;;;12.55;100.00;100697.00;4981462;28;20444;-80
2021/07/03 01:50:58;;;;;;;16.00;10.25;;;;;;;12.52;100.00;100689.25;4981804;28;20026;-81
2021/07/03 01:53:25;;;;;;;15.85;10.05;;;;;;;12.53;100.00;100688.41;4981540;28;20073;-80
2021/07/03 01:55:54;;;;;;;16.83;10.65;;;;;;;12.41;100.00;100689.53;5004468;23;20454;-83
2021/07/03 01:58:24;;;;;;;14.38;9.90;;;;;;;12.46;100.00;100692.00;4981215;28;20064;-83
2021/07/03 02:00:52;;;;;;;17.52;10.13;;;;;;;12.43;100.00;100681.69;4979782;28;20018;-84
2021/07/03 02:03:18;;;;;;;14.82;9.65;;;;;;;12.37;100.00;100682.69;4979345;28;20022;-83
2021/07/03 02:05:47;;;;;;;17.85;10.90;;;;;;;12.35;100.00;100675.81;4978729;28;20548;-84
2021/07/03 02:08:13;;;;;;;16.38;10.98;;;;;;;12.36;100.00;100683.56;4978562;28;20026;-83
2021/07/03 02:10:39;;;;;;;16.08;10.45;;;;;;;12.26;100.00;100683.84;4979371;28;20033;-83
2021/07/03 02:13:08;;;;;;;15.40;10.48;;;;;;;12.24;100.00;100680.41;4979072;28;20394;-83
2021/07/03 02:15:37;;;;;;;18.73;10.82;;;;;;;12.17;100.00;100679.69;4977681;28;20022;-84
2021/07/03 02:18:08;;;;;;;16.05;10.18;;;;;;;12.15;100.00;100678.88;4978994;28;20026;-84
2021/07/03 02:20:36;;;;;;;18.50;10.60;;;;;;;12.15;100.00;100677.13;4978090;28;20022;-84
2021/07/03 02:23:06;;;;;;;22.23;13.15;;;;;;;12.06;100.00;100677.31;4978724;28;20034;-84
2021/07/03 02:25:32;;;;;;;18.27;11.95;;;;;;;12.12;100.00;100672.00;4978383;28;20036;-84
2021/07/03 02:27:57;;;;;;;19.77;12.32;;;;;;;11.90;100.00;100673.38;4979133;28;20134;-84
2021/07/03 02:30:24;;;;;;;21.33;11.20;;;;;;;11.88;100.00;100675.13;4978310;28;20096;-84
2021/07/03 02:32:49;;;;;;;16.50;11.07;;;;;;;11.88;100.00;100664.75;4978346;28;20034;-84
2021/07/03 02:35:19;;;;;;;17.13;11.65;;;;;;;11.81;100.00;100665.75;4978296;28;20022;-84
2021/07/03 02:37:45;;;;;;;20.23;12.23;;;;;;;11.79;100.00;100668.34;4995561;28;20061;-84
2021/07/03 02:40:14;;;;;;;19.05;11.98;;;;;;;11.73;100.00;100668.53;4979291;28;20486;-84
2021/07/03 02:42:43;;;;;;;16.63;12.38;;;;;;;11.73;100.00;100663.31;4978481;28;20049;-84
2021/07/03 02:45:11;;;;;;;18.25;11.88;;;;;;;11.67;100.00;100666.91;4978088;28;20026;-84
2021/07/03 02:47:38;;;;;;;21.50;11.20;;;;;;;11.64;100.00;100666.97;4978243;28;20433;-84
2021/07/03 02:50:12;;;;;;;15.80;9.65;;;;;;;11.75;100.00;100670.16;4978525;28;20026;-84
2021/07/03 02:52:38;;;;;;;;;;;;;;;11.78;100.00;100668.41;4978805;28;20049;-84
2021/07/03 02:55:07;;;;;;;16.30;10.55;;;;;;;11.73;100.00;100674.56;4977749;28;19914;-84
2021/07/03 02:57:33;;;;;;;22.02;11.27;;;;;;;11.68;100.00;100673.78;4978859;28;20184;-83
2021/07/03 02:59:59;;;;;;;15.50;10.88;;;;;;;11.66;100.00;100677.31;4977781;28;20026;-84
2021/07/03 03:02:27;;;;;;;15.90;11.00;;;;;;;11.75;100.00;100677.13;4995672;28;20032;-84
2021/07/03 03:04:53;;;;;;;19.80;11.25;;;;;;;11.69;100.00;100672.03;4977691;28;20560;-83
2021/07/03 03:07:21;;;;;;;19.85;10.88;;;;;;;11.66;100.00;100675.56;4977829;28;20113;-84
2021/07/03 03:09:49;;;;;;;18.88;11.30;;;;;;;11.66;100.00;100678.16;4977946;28;20034;-84
2021/07/03 03:12:14;;;;;;;15.88;11.27;;;;;;;11.69;100.00;100679.84;4978151;28;20458;-84
2021/07/03 03:14:40;;;;;;;21.20;11.95;;;;;;;11.70;100.00;100678.97;4977906;28;20029;-84
2021/07/03 03:17:05;;;;;;;18.17;11.68;;;;;;;11.75;100.00;100683.16;4978240;28;20121;-83
2021/07/03 03:19:31;;;;;;;18.45;11.88;;;;;;;11.70;100.00;100677.22;4977900;28;20037;-84
2021/07/03 03:21:56;;;;;;;15.68;11.00;;;;;;;11.68;100.00;100672.94;4977276;28;20129;-84
2021/07/03 03:24:22;;;;;;;17.25;11.40;;;;;;;11.66;100.00;100677.31;4977890;28;20109;-84
2021/07/03 03:26:47;;;;;;;16.05;10.93;;;;;;;11.69;100.00;100677.25;4979796;28;20129;-84
2021/07/03 03:29:21;;;;;;;14.65;11.20;;;;;;;11.63;100.00;100667.81;4981623;28;20022;-84
2021/07/03 03:31:47;;;;;;;16.90;11.27;;;;;;;11.63;100.00;100670.44;4999508;28;20446;-84
2021/07/03 03:34:12;;;;;;;18.13;10.48;;;;;;;11.74;100.00;100675.41;4981870;28;20033;-83
2021/07/03 03:36:43;;;;;;;17.70;12.13;;;;;;;11.85;100.00;100675.19;4980965;28;20034;-83
2021/07/03 03:39:14;;;;;;;16.73;11.25;;;;;;;11.71;100.00;100673.72;4981211;28;20053;-84
2021/07/03 03:41:39;;;;;;;15.20;11.38;;;;;;;11.74;100.00;100678.88;4981327;28;20030;-84
2021/07/03 03:44:05;;;;;;;18.23;10.68;;;;;;;11.82;100.00;100677.84;4981053;28;20490;-83
2021/07/03 03:46:31;;;;;;;20.80;11.38;;;;;;;11.88;100.00;100678.59;4981013;28;20046;-84
2021/07/03 03:48:56;;;;;;;20.20;11.13;;;;;;;11.78;100.00;100682.25;4981647;28;20023;-83
2021/07/03 03:51:24;;;;;;;16.83;11.90;;;;;;;11.97;100.00;100685.31;4982522;28;20026;-84
2021/07/03 03:53:56;;;;;;;18.30;12.25;;;;;;;12.04;100.00;100688.66;4981591;28;20052;-84
2021/07/03 03:56:21;;;;;;;21.10;11.82;;;;;;;12.03;100.00;100687.78;4980833;28;20034;-84
2021/07/03 03:58:47;;;;;;;17.20;11.57;;;;;;;12.09;100.00;100685.06;4980707;28;20029;-83
2021/07/03 04:01:13;;;;;;;21.10;11.63;;;;;;;12.01;100.00;100692.19;4998830;28;20505;-83
2021/07/03 04:03:38;;;;;;;19.52;12.07;;;;;;;12.10;100.00;100697.19;4981887;28;20034;-84
2021/07/03 04:06:07;;;;;;;22.42;12.27;;;;;;;12.10;100.00;100692.00;4980782;28;20022;-84
2021/07/03 04:08:34;;;;;;;17.65;12.55;;;;;;;12.20;100.00;100692.63;4981708;28;20348;-84
2021/07/03 04:11:00;;;;;;;18.95;11.98;;;;;;;12.27;100.00;100690.75;4981126;28;20037;-84
2021/07/03 04:13:25;;;;;;;22.48;11.95;;;;;;;12.34;100.00;100692.31;4981316;28;20023;-84
2021/07/03 04:15:54;;;;;;;16.67;11.25;;;;;;;12.41;100.00;100692.13;4980738;28;20168;-83
2021/07/03 04:18:19;;;;;;;17.00;12.05;;;;;;;12.54;100.00;100689.25;4980482;28;20478;-83
2021/07/03 04:20:50;;;;;;;16.58;11.80;;;;;;;12.63;100.00;100689.88;4981017;28;20038;-83
2021/07/03 04:23:19;;;;;;;19.08;12.65;;;;;;;12.73;100.00;100694.84;4980649;28;20034;-83
2021/07/03 04:25:44;;;;;;;16.83;12.60;;;;;;;12.77;100.00;100697.31;4980744;28;20393;-83
2021/07/03 04:28:13;;;;;;;18.27;12.85;;;;;;;12.84;100.00;100685.03;4980894;28;20030;-83
2021/07/03 04:30:38;;;;;;;17.73;12.88;;;;;;;12.92;100.00;100684.81;4980482;28;20382;-83
2021/07/03 04:33:06;;;;;;;22.05;13.80;;;;;;;13.02;100.00;100683.66;4980683;28;20022;-83
2021/07/03 04:35:34;;;;;;;17.73;12.65;;;;;;;13.09;100.00;100678.28;4979457;28;20027;-83
2021/07/03 04:37:59;;;;;;;20.63;11.95;;;;;;;13.11;100.00;100681.69;4979784;28;20033;-83
2021/07/03 04:40:25;;;;;;;17.55;12.40;;;;;;;13.17;100.00;100687.63;4979829;28;20027;-84
2021/07/03 04:42:50;;;;;;;16.85;11.82;;;;;;;13.20;100.00;100690.16;4997623;28;20478;-84
2021/07/03 04:45:16;;;;;;;18.13;11.68;;;;;;;13.28;100.00;100683.03;4979548;28;20478;-83
2021/07/03 04:47:46;;;;;;;18.58;11.48;;;;;;;13.30;100.00;100682.09;4980702;28;20030;-83
2021/07/03 04:50:15;;;;;;;14.93;10.82;;;;;;;13.40;100.00;100681.84;4979729;28;20022;-83
2021/07/03 04:52:43;;;;;;;14.60;10.55;;;;;;;13.53;100.00;100685.78;4980377;28;20028;-83
2021/07/03 04:55:09;;;;;;;19.08;11.48;;;;;;;13.58;100.00;100683.94;4978278;28;20035;-83
2021/07/03 04:57:35;;;;;;;18.30;11.93;;;;;;;13.65;100.00;100689.81;4979567;28;20089;-83
2021/07/03 05:00:00;;;;;;;13.95;11.02;;;;;;;13.78;100.00;100688.53;4979452;28;20528;-83
2021/07/03 05:02:26;;;;;;;15.98;11.32;;;;;;;14.25;100.00;100683.63;4979160;28;20034;-83
2021/07/03 05:04:51;;;;;;;13.05;9.85;;;;;;;14.95;100.00;100685.72;4979661;28;20087;-83
2021/07/03 05:07:17;;;;;;;14.57;9.40;;;;;;;15.71;100.00;100691.78;4978893;28;20052;-83
2021/07/03 05:09:52;;;;;;;13.10;8.20;;;;;;;15.28;100.00;100688.06;4979818;28;20034;-83
2021/07/03 05:12:17;;;;;;;;;;;;;;;16.10;100.00;100692.88;4980033;28;20034;-83
2021/07/03 05:14:54;;;;;;;10.90;7.28;;;;;;;16.12;100.00;100692.81;4997195;28;19910;-83
2021/07/03 05:17:20;;;;;;;13.55;7.60;;;;;;;15.22;100.00;100689.16;4980340;28;20022;-84
2021/07/03 05:19:45;;;;;;;13.82;8.70;;;;;;;15.32;100.00;100689.66;4996975;28;20383;-83
2021/07/03 05:22:14;;;;;;;14.15;7.32;;;;;;;16.78;100.00;100688.41;4978773;28;20060;-83
2021/07/03 05:24:39;;;;;;;14.82;7.45;;;;;;;17.29;100.00;100685.38;4979047;28;20030;-84
2021/07/03 05:27:05;;;;;;;10.98;7.15;;;;;;;17.69;100.00;100684.44;4979032;28;20027;-84
2021/07/03 05:29:31;;;;;;;11.77;7.60;;;;;;;16.89;100.00;100679.25;4979774;28;20121;-84
2021/07/03 05:31:59;;;;;;;11.60;6.88;;;;;;;17.07;100.00;100683.69;4980050;28;20018;-82
2021/07/03 05:34:27;;;;;;;11.93;6.85;;;;;;;16.52;100.00;100689.44;4979066;28;20033;-82
2021/07/03 05:36:53;;;;;;;10.77;6.60;;;;;;;17.59;100.00;100686.63;4978215;28;20125;-82
2021/07/03 05:39:19;;;;;;;11.82;6.82;;;;;;;16.82;100.00;100689.13;4979240;28;20065;-82
2021/07/03 05:41:50;;;;;;;13.18;6.90;;;;;;;16.23;100.00;100703.72;4980296;28;20129;-82
2021/07/03 05:44:16;;;;;;;11.82;7.22;;;;;;;16.72;100.00;100706.13;4979382;28;20493;-81
2021/07/03 05:46:41;;;;;;;14.38;6.57;;;;;;;16.93;100.00;100692.16;4979020;28;20065;-81
2021/07/03 05:49:07;;;;;;;10.52;6.68;;;;;;;17.48;100.00;100687.09;4978435;28;20033;-82
2021/07/03 05:51:33;;;;;;;12.52;6.93;;;;;;;17.79;100.00;100682.28;4996246;28;20034;-81
2021/07/03 05:54:04;;;;;;;13.20;6.85;;;;;;;16.92;100.00;100690.44;4978712;28;20026;-81
2021/07/03 05:56:33;;;;;;;13.38;7.18;;;;;;;16.64;100.00;100693.31;4978174;28;20517;-82
2021/07/03 05:59:01;;;;;;;14.32;7.43;;;;;;;16.24;100.00;100687.09;4979099;28;20390;-81
2021/07/03 06:01:32;;;;;;;9.50;6.40;;;;;;;17.25;100.00;100689.91;4979073;28;20560;-81
2021/07/03 06:04:00;;;;;;;15.05;7.32;;;;;;;17.31;100.00;100691.41;4980222;28;20097;-81
2021/07/03 06:06:31;;;;;;;11.75;7.10;;;;;;;17.53;100.00;100681.66;4979940;28;20029;-81
2021/07/03 06:08:59;;;;;;;11.68;6.32;;;;;;;17.78;100.00;100680.59;4980550;28;20027;-81
2021/07/03 06:11:27;;;;;;;14.07;6.88;;;;;;;18.49;98.70;100681.53;4980818;28;20034;-81
2021/07/03 06:13:54;;;;;;;13.05;5.75;;;;;;;18.32;99.65;100681.53;4980896;28;20026;-81
2021/07/03 06:16:22;;;;;;;12.32;6.25;;;;;;;19.33;90.19;100686.94;4980804;28;20042;-81
2021/07/03 06:18:48;;;;;;;11.02;5.63;;;;;;;19.17;90.57;100683.41;4981072;28;20390;-81
2021/07/03 06:21:16;;;;;;;9.30;5.03;;;;;;;18.70;92.11;100686.66;4980946;28;20022;-81
2021/07/03 06:23:44;;;;;;;9.88;5.45;;;;;;;18.78;94.87;100685.38;4980438;28;20034;-82
2021/07/03 06:26:10;;;;;;;9.15;5.07;;;;;;;19.33;90.24;100676.41;4980018;28;20132;-82
2021/07/03 06:28:36;;;;;;;11.70;4.72;;;;;;;18.31;95.01;100678.03;4980780;28;20108;-81
2021/07/03 06:31:03;;;;;;;10.70;5.20;;;;;;;17.82;100.00;100674.25;4980799;28;20022;-82
2021/07/03 06:33:32;;;;;;;11.32;5.32;;;;;;;19.16;90.49;100679.09;4980693;28;20113;-82
2021/07/03 06:36:03;;;;;;;9.63;4.30;;;;;;;19.10;91.30;100672.38;4980835;28;20029;-81
2021/07/03 06:38:28;;;;;;;10.73;4.85;;;;;;;19.67;88.20;100670.22;4981429;28;20113;-81
2021/07/03 06:40:54;;;;;;;9.55;4.68;;;;;;;20.65;86.42;100675.25;4982561;28;20536;-81
2021/07/03 06:43:19;;;;;;;9.05;4.72;;;;;;;20.45;84.08;100665.88;4999169;28;20029;-81
2021/07/03 06:45:45;;;;;;;9.80;4.03;;;;;;;20.85;80.45;100671.47;5001343;28;20026;-81
2021/07/03 06:48:10;;;;;;;7.65;4.43;;;;;;;20.56;78.67;100673.16;4982917;28;20394;-81
2021/07/03 06:50:38;;;;;;;7.50;4.03;;;;;;;19.51;82.12;100662.28;4982623;28;20034;-82
2021/07/03 06:53:04;;;;;;;7.55;3.47;;;;;;;18.59;91.56;100663.53;4981456;28;20057;-82
2021/07/03 06:55:30;;;;;;;8.45;4.15;;;;;;;18.81;88.98;100668.59;4982060;28;20046;-82
2021/07/03 06:57:55;;;;;;;10.35;3.90;;;;;;;20.16;81.47;100666.66;4981905;28;20057;-82
2021/07/03 07:00:21;;;;;;;11.27;4.28;;;;;;;18.98;88.13;100668.59;5000306;28;20030;-82
2021/07/03 07:02:49;;;;;;;11.25;4.18;;;;;;;19.66;86.80;100665.06;4980365;28;20030;-82
2021/07/03 07:05:14;;;;;;;9.15;3.97;;;;;;;18.48;87.81;100665.88;4982025;28;20027;-81
2021/07/03 07:07:45;;;;;;;8.70;3.65;;;;;;;18.74;89.41;100673.31;4981557;28;20045;-82
2021/07/03 07:10:11;;;;;;;8.70;4.30;;;;;;;19.41;84.67;100668.13;4982632;28;20411;-81
2021/07/03 07:12:42;;;;;;;9.15;4.20;;;;;;;18.47;90.56;100672.03;4983376;28;20076;-81
2021/07/03 07:15:08;;;;;;;11.18;4.60;;;;;;;18.02;93.87;100671.56;4982582;28;20022;-82
2021/07/03 07:17:33;;;;;;;9.48;4.57;;;;;;;17.84;93.61;100672.44;4980105;28;20033;-82
2021/07/03 07:19:59;;;;;;;9.35;4.43;;;;;;;18.05;94.61;100673.19;4996047;28;20030;-82
2021/07/03 07:22:27;;;;;;;12.13;4.72;;;;;;;18.49;93.62;100670.19;4978592;28;20121;-82
2021/07/03 07:24:52;;;;;;;7.03;3.92;;;;;;;18.28;92.19;100672.94;4978675;28;20385;-82
2021/07/03 07:27:20;;;;;;;9.77;4.00;;;;;;;18.06;89.22;100669.63;4998058;28;20026;-81
2021/07/03 07:29:46;;;;;;;9.65;4.20;;;;;;;18.22;91.28;100680.25;4983056;28;20148;-82
2021/07/03 07:32:11;;;;;;;9.65;4.05;;;;;;;18.17;91.58;100665.56;4978494;28;20593;-82
2021/07/03 07:34:37;;;;;;;8.45;3.83;;;;;;;18.15;92.96;100670.03;4978641;28;20117;-82
2021/07/03 07:37:04;;;;;;;8.32;4.00;;;;;;;17.78;94.58;100673.56;4979457;28;20023;-83
2021/07/03 07:39:30;;;;;;;8.00;3.92;;;;;;;17.85;94.53;100682.00;4979886;28;20022;-82
2021/07/03 07:41:58;;;;;;;6.22;3.60;;;;;;;17.99;94.67;100674.34;4978525;28;20497;-82
2021/07/03 07:44:27;;;;;;;8.75;4.50;;;;;;;19.11;86.93;100675.84;4978181;28;20031;-82
2021/07/03 07:46:52;;;;;;;8.63;3.40;;;;;;;19.47;84.42;100673.91;4978134;28;20026;-81
2021/07/03 07:49:17;;;;;;;10.82;4.43;;;;;;;18.67;88.23;100677.16;4978390;28;20027;-81
2021/07/03 07:51:43;;;;;;;9.93;3.88;;;;;;;18.11;91.51;100684.25;4995443;28;20026;-81
2021/07/03 07:54:08;;;;;;;10.07;4.22;;;;;;;18.15;92.19;100688.41;4977544;28;20050;-81
2021/07/03 07:56:33;;;;;;;8.45;3.72;;;;;;;18.17;91.69;100677.84;5001568;23;20035;-80
2021/07/03 07:58:58;;;;;;;7.05;3.50;;;;;;;18.16;89.87;100676.13;4997503;28;20030;-79
2021/07/03 08:01:24;;;;;;;8.32;3.42;;;;;;;18.12;87.75;100679.84;4980544;28;20026;-79
2021/07/03 08:03:50;;;;;;;7.13;3.08;;;;;;;18.82;86.77;100670.31;4997960;28;20031;-80
2021/07/03 08:06:15;;;;;;;7.65;3.20;;;;;;;19.03;84.78;100668.38;4997524;28;20101;-80
2021/07/03 08:08:40;;;;;;;7.90;3.08;;;;;;;19.17;81.15;100670.28;4997331;28;20486;-80
2021/07/03 08:11:06;;;;;;;8.68;3.15;;;;;;;18.70;81.71;100670.91;4996903;28;20022;-80
2021/07/03 08:13:31;;;;;;;9.07;3.00;;;;;;;18.60;81.91;100681.88;4981560;28;20025;-80
2021/07/03 08:15:57;;;;;;;7.18;3.38;;;;;;;18.08;84.98;100683.53;5001374;28;20030;-79
2021/07/03 08:18:23;;;;;;;5.65;2.90;;;;;;;18.06;87.37;100680.97;5000328;28;20134;-79
2021/07/03 08:20:49;;;;;;;7.30;3.45;;;;;;;18.31;86.50;100685.91;5001398;28;20030;-79
2021/07/03 08:23:14;;;;;;;6.65;3.33;;;;;;;19.63;79.42;100675.72;5000668;28;20026;-79
2021/07/03 08:25:40;;;;;;;10.20;3.30;;;;;;;21.27;74.15;100676.88;4999808;28;20033;-79
2021/07/03 08:28:05;;;;;;;6.35;3.28;;;;;;;22.64;63.36;100674.38;4982546;28;20030;-79
2021/07/03 08:30:32;;;;;;;6.82;3.15;;;;;;;22.91;66.29;100661.94;4985464;28;20501;-81
2021/07/03 08:32:57;;;;;;;8.38;3.28;;;;;;;22.64;61.86;100667.28;5004429;28;20026;-80
2021/07/03 08:35:23;;;;;;;7.40;3.08;;;;;;;22.83;64.43;100666.03;5004470;28;20030;-80
2021/07/03 08:37:48;;;;;;;7.15;2.90;;;;;;;21.70;65.81;100667.19;5002254;28;20033;-80
2021/07/03 08:40:15;;;;;;;4.82;2.50;;;;;;;20.52;69.03;100668.19;4984729;28;20023;-79
2021/07/03 08:42:41;;;;;;;6.57;2.85;;;;;;;21.84;66.43;100667.16;4986648;28;20030;-79
2021/07/03 08:45:07;;;;;;;5.57;3.08;;;;;;;20.46;67.17;100659.66;5002098;28;20022;-79
2021/07/03 08:47:33;;;;;;;6.80;3.13;;;;;;;21.15;69.36;100665.28;5002108;28;20405;-80
2021/07/03 08:50:00;;;;;;;9.75;3.20;;;;;;;20.23;73.90;100670.69;5003229;28;20022;-80
2021/07/03 08:52:26;;;;;;;9.52;2.45;;;;;;;20.40;69.56;100665.28;5002338;28;20478;-80
2021/07/03 08:55:16;;;;;;;5.40;2.20;;;;;;;20.90;68.17;100665.91;5002887;28;20033;-80
2021/07/03 08:57:49;;;;;;;6.13;2.42;;;;;;;22.18;63.08;100656.25;5001168;28;20402;-80
2021/07/03 09:00:16;;;;;;;6.88;2.65;;;;;;;23.52;59.95;100656.00;5001342;28;20022;-80
2021/07/03 09:02:44;;;;;;;5.65;2.30;;;;;;;22.52;57.92;100655.72;5000475;28;20034;-79
2021/07/03 09:05:29;;;;;;;6.03;2.72;;;;;;;22.94;58.81;100652.97;4982202;28;20088;-79
2021/07/03 09:08:06;;;;;;;6.32;2.35;;;;;;;22.19;62.01;100657.94;4999966;28;20049;-80
2021/07/03 09:10:32;;;;;;;6.50;2.88;;;;;;;20.99;65.31;100651.34;5000154;28;20030;-80
2021/07/03 09:12:59;;;;;;;6.18;2.50;;;;;;;20.49;68.79;100656.00;4999002;28;20485;-80
2021/07/03 09:15:27;;;;;;;6.60;2.75;;;;;;;21.74;62.67;100650.22;4981375;28;20088;-80
2021/07/03 09:18:07;;;;;;;5.40;2.50;;;;;;;21.29;64.50;100649.47;4999729;28;20037;-79
2021/07/03 09:20:38;;;;;;;7.55;3.42;;;;;;;20.85;68.17;100653.03;4983659;28;20030;-79
2021/07/03 09:23:08;;;;;;;7.03;3.00;;;;;;;20.68;70.92;100653.16;4982281;28;20046;-80
2021/07/03 09:25:36;;;;;;;8.05;2.92;;;;;;;20.05;74.12;100651.47;4998726;28;20505;-80
2021/07/03 09:28:07;;;;;;;7.20;2.83;;;;;;;19.96;74.13;100654.63;4999491;28;20451;-80
2021/07/03 09:30:33;;;;;;;6.10;3.13;;;;;;;22.57;65.57;100650.16;4998691;28;20371;-80
2021/07/03 09:32:58;;;;;;;5.68;2.63;;;;;;;23.92;58.89;100650.50;4998188;28;20028;-80
2021/07/03 09:35:24;;;;;;;6.57;2.60;;;;;;;24.26;54.21;100641.78;4998549;28;20524;-79
2021/07/03 09:37:49;;;;;;;5.38;2.20;;;;;;;24.41;53.04;100641.59;4997599;28;20134;-79
2021/07/03 09:40:16;;;;;;;6.18;2.63;;;;;;;23.71;55.85;100643.19;4998666;28;20413;-79
2021/07/03 09:42:42;;;;;;;8.60;2.90;;;;;;;21.15;64.80;100638.91;5000003;28;20450;-80
2021/07/03 09:45:09;;;;;;;4.70;2.53;;;;;;;21.48;65.47;100640.44;4999108;28;20030;-80
2021/07/03 09:47:35;;;;;;;6.03;2.33;;;;;;;20.71;67.24;100647.72;4981661;28;20026;-80
2021/07/03 09:50:02;;;;;;;6.50;2.80;;;;;;;22.81;61.79;100644.13;4981453;28;20026;-80
2021/07/03 09:52:27;;;;;;;7.63;2.70;;;;;;;24.46;54.70;100636.84;4998118;28;20058;-80
2021/07/03 09:54:53;;;;;;;6.03;2.60;;;;;;;25.37;50.95;100631.59;4980269;28;20537;-80
2021/07/03 09:57:19;;;;;;;7.90;2.30;;;;;;;24.13;52.22;100633.03;4998992;28;20090;-81
2021/07/03 09:59:44;;;;;;;7.97;3.30;;;;;;;25.71;50.91;100631.53;4981974;28;20474;-81
2021/07/03 10:02:11;;;;;;;8.35;3.20;;;;;;;23.86;56.92;100642.06;5000415;28;20386;-82
2021/07/03 10:04:36;;;;;;;6.45;2.65;;;;;;;23.35;56.46;100630.72;5000899;28;20053;-81
2021/07/03 10:07:20;;;;;;;5.30;2.35;;;;;;;23.30;58.69;100625.75;4981915;28;20026;-81
2021/07/03 10:09:50;;;;;;;5.65;2.15;;;;;;;21.04;63.66;100615.00;4999281;28;20034;-81
2021/07/03 10:12:23;;;;;;;6.07;2.35;;;;;;;20.34;67.52;100633.16;4999956;28;20041;-81
2021/07/03 10:14:49;;;;;;;5.95;2.40;;;;;;;20.66;68.89;100633.97;5002191;28;20046;-83
2021/07/03 10:17:29;;;;;;;4.68;2.00;;;;;;;23.63;55.14;100624.31;5001812;28;20018;-81
2021/07/03 10:19:55;;;;;;;7.30;2.50;;;;;;;24.03;55.36;100635.53;5000228;28;20033;-80
2021/07/03 10:22:23;;;;;;;6.07;2.42;;;;;;;24.06;53.51;100632.66;4998709;28;20027;-80
2021/07/03 10:25:12;;;;;;;5.55;2.05;;;;;;;24.55;53.14;100630.84;5001021;28;20026;-80
2021/07/03 10:27:52;;;;;;;5.43;2.63;;;;;;;25.72;50.77;100623.44;4999005;28;20034;-79
2021/07/03 10:30:28;;;;;;;5.07;2.03;;;;;;;24.97;51.22;100618.75;4982126;28;20033;-79
2021/07/03 10:32:59;;;;;;;8.48;2.00;;;;;;;23.24;55.42;100618.22;4982078;28;20041;-80
2021/07/03 10:35:25;;;;;;;8.45;2.03;;;;;;;22.05;63.65;100621.84;4999262;28;20018;-80
2021/07/03 10:37:52;;;;;;;6.63;2.50;;;;;;;21.41;64.80;100623.31;4999233;28;20149;-80
2021/07/03 10:40:25;;;;;;;6.43;2.28;;;;;;;20.78;66.98;100627.97;4979975;28;20026;-80
2021/07/03 10:43:05;;;;;;;5.15;2.30;;;;;;;20.82;65.84;100626.84;4997792;28;20026;-80
2021/07/03 10:45:30;;;;;;;5.68;2.33;;;;;;;23.98;56.80;100615.63;4998008;28;20031;-80
2021/07/03 10:47:56;;;;;;;7.22;2.10;;;;;;;22.44;58.23;100612.25;4998301;28;20029;-80
2021/07/03 10:50:30;;;;;;;4.57;1.98;;;;;;;22.34;59.68;100617.31;4980055;28;20137;-80
2021/07/03 10:52:57;;;;;;;5.90;2.05;;;;;;;24.66;52.76;100608.78;4996689;28;20038;-79
2021/07/03 10:55:30;;;;;;;7.13;2.40;;;;;;;24.73;53.01;100602.91;4997209;28;20421;-79
2021/07/03 10:57:57;;;;;;;5.18;2.10;;;;;;;24.30;51.00;100607.94;4979039;28;20037;-79
2021/07/03 11:00:24;;;;;;;7.53;2.47;;;;;;;22.13;57.66;100598.41;4978562;28;20496;-79
2021/07/03 11:02:49;;;;;;;4.53;1.98;;;;;;;21.09;63.40;100605.00;4996613;28;20038;-80
2021/07/03 11:05:15;;;;;;;4.70;2.08;;;;;;;23.89;55.97;100610.06;4978724;28;20027;-80
2021/07/03 11:07:42;;;;;;;6.78;2.10;;;;;;;25.31;48.85;100605.50;4996768;28;20046;-80
2021/07/03 11:10:14;;;;;;;4.18;2.00;;;;;;;25.32;48.59;100601.03;4997059;28;20080;-82
2021/07/03 11:12:51;;;;;;;6.10;2.03;;;;;;;25.46;49.15;100606.94;4997949;28;20550;-80
2021/07/03 11:15:27;;;;;;;10.63;2.05;;;;;;;23.44;55.09;100607.09;4979084;28;20053;-80
2021/07/03 11:17:56;;;;;;;6.15;2.10;;;;;;;23.87;53.43;100608.47;4996774;28;20386;-81